createdAt,value
2023-04-12T00:00:37.758Z,27.28
2023-04-12T00:01:37.955Z,27.27
2023-04-12T00:02:38.217Z,27.27
2023-04-12T00:03:38.139Z,27.22
2023-04-12T00:04:38.144Z,27.24
2023-04-12T00:05:38.043Z,27.28
2023-04-12T00:06:38.113Z,27.28
2023-04-12T00:07:38.168Z,27.24
2023-04-12T00:08:38.267Z,27.22
2023-04-12T00:09:38.334Z,27.25
2023-04-12T00:10:38.336Z,27.22
2023-04-12T00:11:38.389Z,27.28
2023-04-12T00:12:38.463Z,27.30
2023-04-12T00:13:38.530Z,27.27
2023-04-12T00:14:38.629Z,27.27
2023-04-12T00:15:38.661Z,27.27
2023-04-12T00:16:38.717Z,27.27
2023-04-12T00:17:38.799Z,27.31
2023-04-12T00:18:38.809Z,27.28
2023-04-12T00:19:38.898Z,27.28
2023-04-12T00:20:38.970Z,27.25
2023-04-12T00:21:38.993Z,27.28
2023-04-12T00:22:39.113Z,27.29
2023-04-12T00:23:39.142Z,27.30
2023-04-12T00:24:39.192Z,27.29
2023-04-12T00:25:39.276Z,27.31
2023-04-12T00:26:39.317Z,27.31
2023-04-12T00:27:39.372Z,27.29
2023-04-12T00:28:39.447Z,27.29
2023-04-12T00:29:39.513Z,27.33
2023-04-12T00:30:39.543Z,27.28
2023-04-12T00:31:39.666Z,27.27
2023-04-12T00:32:39.737Z,27.31
2023-04-12T00:33:39.741Z,27.31
2023-04-12T00:34:39.847Z,27.25
2023-04-12T00:35:39.848Z,27.31
2023-04-12T00:36:39.994Z,27.31
2023-04-12T00:37:40.045Z,27.29
2023-04-12T00:38:40.047Z,27.32
2023-04-12T00:39:40.131Z,27.31
2023-04-12T00:40:40.171Z,27.33
2023-04-12T00:41:40.246Z,27.29
2023-04-12T00:42:40.292Z,27.32
2023-04-12T00:43:40.374Z,27.34
2023-04-12T00:44:40.403Z,27.34
2023-04-12T00:45:40.523Z,27.35
2023-04-12T00:46:40.659Z,27.28
2023-04-12T00:47:40.634Z,27.33
2023-04-12T00:48:40.710Z,27.35
2023-04-12T00:49:40.734Z,27.32
2023-04-12T00:50:40.814Z,27.32
2023-04-12T00:51:40.846Z,27.39
2023-04-12T00:52:40.997Z,27.32
2023-04-12T00:53:40.965Z,27.35
2023-04-12T00:54:40.991Z,27.31
2023-04-12T00:55:41.052Z,27.31
2023-04-12T00:56:41.121Z,27.31
2023-04-12T00:57:41.180Z,27.33
2023-04-12T00:58:41.233Z,27.33
2023-04-12T00:59:41.276Z,27.31
2023-04-12T01:00:41.402Z,27.32
2023-04-12T01:01:41.584Z,27.35
2023-04-12T01:02:41.637Z,27.32
2023-04-12T01:03:41.648Z,27.32
2023-04-12T01:04:41.633Z,27.32
2023-04-12T01:05:41.705Z,27.35
2023-04-12T01:06:41.740Z,27.33
2023-04-12T01:07:41.854Z,27.35
2023-04-12T01:08:41.928Z,27.35
2023-04-12T01:09:41.898Z,27.33
2023-04-12T01:10:41.963Z,27.30
2023-04-12T01:11:42.001Z,27.29
2023-04-12T01:12:42.101Z,27.35
2023-04-12T01:13:42.165Z,27.37
2023-04-12T01:14:42.198Z,27.36
2023-04-12T01:15:42.284Z,27.39
2023-04-12T01:16:42.450Z,27.37
2023-04-12T01:17:42.470Z,27.36
2023-04-12T01:18:42.519Z,27.33
2023-04-12T01:19:42.541Z,27.38
2023-04-12T01:20:42.604Z,27.36
2023-04-12T01:21:42.612Z,27.38
2023-04-12T01:22:42.722Z,27.35
2023-04-12T01:23:42.767Z,27.36
2023-04-12T01:24:42.832Z,27.36
2023-04-12T01:25:42.985Z,27.35
2023-04-12T01:26:42.963Z,27.38
2023-04-12T01:27:43.004Z,27.37
2023-04-12T01:28:43.047Z,27.38
2023-04-12T01:29:43.093Z,27.36
2023-04-12T01:30:43.189Z,27.37
2023-04-12T01:31:43.336Z,27.35
2023-04-12T01:32:43.314Z,27.39
2023-04-12T01:33:43.370Z,27.40
2023-04-12T01:34:43.463Z,27.40
2023-04-12T01:35:43.539Z,27.43
2023-04-12T01:36:43.567Z,27.42
2023-04-12T01:37:43.586Z,27.37
2023-04-12T01:38:43.679Z,27.42
2023-04-12T01:39:43.721Z,27.42
2023-04-12T01:40:43.770Z,27.37
2023-04-12T01:41:43.826Z,27.39
2023-04-12T01:42:43.835Z,27.39
2023-04-12T01:43:43.904Z,27.39
2023-04-12T01:44:43.936Z,27.39
2023-04-12T01:45:44.130Z,27.42
2023-04-12T01:46:44.081Z,27.42
2023-04-12T01:47:44.144Z,27.43
2023-04-12T01:48:44.184Z,27.44
2023-04-12T01:49:44.223Z,27.42
2023-04-12T01:50:44.282Z,27.40
2023-04-12T01:51:44.354Z,27.40
2023-04-12T01:52:44.331Z,27.37
2023-04-12T01:53:44.416Z,27.43
2023-04-12T01:54:44.425Z,27.42
2023-04-12T01:55:44.487Z,27.39
2023-04-12T01:56:44.505Z,27.43
2023-04-12T01:57:44.547Z,27.42
2023-04-12T01:58:44.612Z,27.46
2023-04-12T01:59:44.659Z,27.46
2023-04-12T02:00:44.782Z,27.42
2023-04-12T02:01:44.865Z,27.40
2023-04-12T02:02:45.028Z,27.40
2023-04-12T02:03:44.989Z,27.44
2023-04-12T02:04:45.522Z,27.47
2023-04-12T02:05:45.019Z,27.40
2023-04-12T02:06:45.139Z,27.43
2023-04-12T02:07:45.125Z,27.46
2023-04-12T02:08:45.189Z,27.39
2023-04-12T02:09:45.248Z,27.41
2023-04-12T02:10:45.250Z,27.40
2023-04-12T02:11:45.275Z,27.46
2023-04-12T02:12:45.366Z,27.41
2023-04-12T02:13:45.462Z,27.44
2023-04-12T02:14:45.438Z,27.44
2023-04-12T02:15:45.541Z,27.48
2023-04-12T02:16:45.493Z,27.43
2023-04-12T02:17:45.649Z,27.40
2023-04-12T02:18:45.612Z,27.47
2023-04-12T02:19:45.712Z,27.45
2023-04-12T02:20:45.688Z,27.41
2023-04-12T02:21:45.739Z,27.47
2023-04-12T02:22:45.735Z,27.43
2023-04-12T02:23:45.733Z,27.45
2023-04-12T02:24:45.887Z,27.45
2023-04-12T02:25:45.852Z,27.47
2023-04-12T02:26:45.868Z,27.48
2023-04-12T02:27:45.940Z,27.48
2023-04-12T02:28:45.973Z,27.45
2023-04-12T02:29:45.996Z,27.41
2023-04-12T02:30:46.136Z,27.50
2023-04-12T02:31:46.151Z,27.44
2023-04-12T02:32:46.203Z,27.48
2023-04-12T02:33:46.227Z,27.47
2023-04-12T02:34:46.331Z,27.48
2023-04-12T02:35:46.266Z,27.47
2023-04-12T02:36:46.333Z,27.45
2023-04-12T02:37:46.349Z,27.48
2023-04-12T02:38:46.435Z,27.51
2023-04-12T02:39:46.460Z,27.48
2023-04-12T02:40:46.537Z,27.45
2023-04-12T02:41:46.539Z,27.51
2023-04-12T02:42:46.601Z,27.50
2023-04-12T02:43:46.595Z,27.47
2023-04-12T02:44:46.707Z,27.45
2023-04-12T02:45:46.729Z,27.51
2023-04-12T02:46:46.801Z,27.54
2023-04-12T02:47:46.797Z,27.50
2023-04-12T02:48:46.849Z,27.47
2023-04-12T02:49:46.852Z,27.52
2023-04-12T02:50:46.883Z,27.52
2023-04-12T02:51:47.468Z,27.51
2023-04-12T02:52:46.947Z,27.52
2023-04-12T02:53:46.973Z,27.51
2023-04-12T02:54:47.027Z,27.49
2023-04-12T02:55:47.088Z,27.50
2023-04-12T02:56:47.543Z,27.51
2023-04-12T02:57:47.095Z,27.53
2023-04-12T02:58:47.098Z,27.47
2023-04-12T02:59:47.175Z,27.51
2023-04-12T03:00:47.178Z,27.58
2023-04-12T03:01:47.331Z,27.55
2023-04-12T03:02:47.386Z,27.48
2023-04-12T03:03:47.350Z,27.48
2023-04-12T03:04:47.385Z,27.54
2023-04-12T03:05:47.369Z,27.54
2023-04-12T03:06:47.367Z,27.54
2023-04-12T03:07:47.367Z,27.52
2023-04-12T03:08:47.444Z,27.55
2023-04-12T03:09:47.486Z,27.51
2023-04-12T03:10:47.595Z,27.48
2023-04-12T03:11:47.506Z,27.51
2023-04-12T03:12:47.581Z,27.54
2023-04-12T03:13:47.679Z,27.51
2023-04-12T03:14:47.626Z,27.55
2023-04-12T03:15:47.727Z,27.56
2023-04-12T03:16:47.738Z,27.54
2023-04-12T03:17:47.880Z,27.56
2023-04-12T03:18:47.807Z,27.52
2023-04-12T03:19:47.964Z,27.54
2023-04-12T03:20:47.966Z,27.51
2023-04-12T03:21:47.935Z,27.56
2023-04-12T03:22:48.021Z,27.55
2023-04-12T03:23:47.989Z,27.55
2023-04-12T03:24:48.073Z,27.55
2023-04-12T03:25:48.124Z,27.54
2023-04-12T03:26:48.128Z,27.56
2023-04-12T03:27:48.171Z,27.54
2023-04-12T03:28:48.221Z,27.53
2023-04-12T03:29:48.241Z,27.56
2023-04-12T03:30:48.356Z,27.54
2023-04-12T03:31:48.386Z,27.55
2023-04-12T03:32:48.497Z,27.53
2023-04-12T03:33:48.436Z,27.58
2023-04-12T03:34:48.451Z,27.55
2023-04-12T03:35:48.557Z,27.58
2023-04-12T03:36:48.610Z,27.55
2023-04-12T03:37:48.612Z,27.55
2023-04-12T03:38:48.550Z,27.51
2023-04-12T03:39:48.717Z,27.54
2023-04-12T03:40:48.700Z,27.56
2023-04-12T03:41:48.640Z,27.53
2023-04-12T03:42:48.730Z,27.55
2023-04-12T03:43:48.691Z,27.56
2023-04-12T03:44:48.669Z,27.56
2023-04-12T03:45:48.759Z,27.61
2023-04-12T03:46:48.716Z,27.58
2023-04-12T03:47:48.856Z,27.58
2023-04-12T03:48:48.770Z,27.52
2023-04-12T03:50:01.753Z,27.58
2023-04-12T03:50:49.883Z,27.56
2023-04-12T03:51:48.698Z,27.56
2023-04-12T03:52:48.692Z,27.58
2023-04-12T03:53:48.701Z,27.60
2023-04-12T03:54:48.719Z,27.59
2023-04-12T03:55:48.724Z,27.59
2023-04-12T03:56:48.730Z,27.59
2023-04-12T03:57:48.690Z,27.52
2023-04-12T03:58:48.638Z,27.59
2023-04-12T03:59:48.637Z,27.60
2023-04-12T04:00:48.650Z,27.60
2023-04-12T04:01:48.752Z,27.58
2023-04-12T04:02:48.698Z,27.59
2023-04-12T04:03:48.742Z,27.58
2023-04-12T04:04:48.866Z,27.55
2023-04-12T04:05:48.642Z,27.56
2023-04-12T04:06:48.816Z,27.59
2023-04-12T04:07:48.660Z,27.60
2023-04-12T04:08:48.626Z,27.58
2023-04-12T04:09:48.617Z,27.52
2023-04-12T04:10:48.623Z,27.56
2023-04-12T04:11:48.720Z,27.47
2023-04-12T04:12:48.589Z,27.46
2023-04-12T04:13:48.555Z,27.47
2023-04-12T04:14:48.555Z,27.46
2023-04-12T04:15:48.546Z,27.44
2023-04-12T04:16:48.722Z,27.43
2023-04-12T04:17:48.628Z,27.50
2023-04-12T04:18:48.540Z,27.46
2023-04-12T04:19:49.502Z,27.46
2023-04-12T04:20:48.550Z,27.49
2023-04-12T04:21:48.486Z,27.49
2023-04-12T04:22:48.593Z,27.43
2023-04-12T04:23:48.617Z,27.46
2023-04-12T04:24:48.609Z,27.40
2023-04-12T04:25:48.582Z,27.39
2023-04-12T04:26:48.631Z,27.46
2023-04-12T04:27:48.553Z,27.42
2023-04-12T04:28:48.735Z,27.43
2023-04-12T04:29:48.650Z,27.42
2023-04-12T04:30:48.665Z,27.43
2023-04-12T04:31:48.813Z,27.37
2023-04-12T04:32:48.749Z,27.40
2023-04-12T04:33:48.850Z,27.39
2023-04-12T04:34:48.789Z,27.37
2023-04-12T04:35:48.801Z,27.37
2023-04-12T04:36:48.929Z,27.38
2023-04-12T04:37:48.824Z,27.40
2023-04-12T04:38:48.823Z,27.44
2023-04-12T04:39:48.937Z,27.44
2023-04-12T04:40:48.887Z,27.43
2023-04-12T04:41:48.930Z,27.43
2023-04-12T04:42:48.949Z,27.43
2023-04-12T04:43:48.846Z,27.42
2023-04-12T04:44:48.953Z,27.43
2023-04-12T04:45:48.902Z,27.44
2023-04-12T04:46:48.872Z,27.44
2023-04-12T04:47:48.955Z,27.44
2023-04-12T04:48:48.973Z,27.46
2023-04-12T04:49:48.893Z,27.49
2023-04-12T04:50:48.861Z,27.47
2023-04-12T04:51:48.908Z,27.44
2023-04-12T04:52:49.014Z,27.46
2023-04-12T04:53:48.915Z,27.47
2023-04-12T04:54:49.037Z,27.47
2023-04-12T04:55:48.975Z,27.49
2023-04-12T04:56:49.020Z,27.47
2023-04-12T04:57:48.998Z,27.49
2023-04-12T04:58:49.006Z,27.46
2023-04-12T04:59:49.022Z,27.46
2023-04-12T05:00:49.118Z,27.51
2023-04-12T05:01:49.241Z,27.46
2023-04-12T05:02:49.209Z,27.46
2023-04-12T05:03:49.204Z,27.47
2023-04-12T05:04:49.072Z,27.43
2023-04-12T05:05:49.195Z,27.41
2023-04-12T05:06:49.095Z,27.38
2023-04-12T05:07:49.210Z,27.40
2023-04-12T05:08:49.182Z,27.46
2023-04-12T05:09:49.185Z,27.44
2023-04-12T05:10:49.241Z,27.43
2023-04-12T05:11:49.236Z,27.42
2023-04-12T05:12:49.277Z,27.43
2023-04-12T05:13:49.343Z,27.42
2023-04-12T05:14:51.635Z,27.42
2023-04-12T05:15:49.343Z,27.41
2023-04-12T05:16:49.399Z,27.38
2023-04-12T05:17:49.308Z,27.37
2023-04-12T05:18:49.299Z,27.33
2023-04-12T05:19:49.397Z,27.37
2023-04-12T05:20:49.298Z,27.38
2023-04-12T05:21:49.302Z,27.35
2023-04-12T05:22:49.304Z,27.34
2023-04-12T05:23:49.313Z,27.37
2023-04-12T05:24:49.331Z,27.37
2023-04-12T05:25:49.333Z,27.33
2023-04-12T05:26:49.248Z,27.34
2023-04-12T05:27:52.008Z,27.36
2023-04-12T05:28:49.284Z,27.31
2023-04-12T05:29:49.206Z,27.30
2023-04-12T05:30:49.285Z,27.30
2023-04-12T05:31:49.279Z,27.27
2023-04-12T05:32:49.355Z,27.29
2023-04-12T05:33:49.222Z,27.20
2023-04-12T05:34:49.201Z,26.09
2023-04-12T05:35:49.339Z,25.82
2023-04-12T05:36:49.718Z,25.94
2023-04-12T05:37:49.142Z,25.93
2023-04-12T05:38:49.235Z,26.01
2023-04-12T05:39:49.209Z,26.28
2023-04-12T05:40:49.119Z,26.41
2023-04-12T05:41:49.126Z,26.49
2023-04-12T05:42:49.155Z,26.75
2023-04-12T05:43:49.261Z,26.99
2023-04-12T05:44:49.884Z,27.13
2023-04-12T05:45:49.213Z,27.62
2023-04-12T05:46:49.188Z,27.82
2023-04-12T05:47:49.237Z,27.84
2023-04-12T05:48:49.076Z,28.07
2023-04-12T05:49:49.132Z,28.18
2023-04-12T05:50:49.102Z,28.29
2023-04-12T05:51:49.621Z,28.38
2023-04-12T05:52:49.042Z,28.47
2023-04-12T05:53:49.120Z,28.51
2023-04-12T05:54:49.016Z,28.60
2023-04-12T05:55:49.023Z,28.68
2023-04-12T05:56:49.090Z,28.76
2023-04-12T05:57:49.040Z,28.80
2023-04-12T05:58:49.058Z,28.94
2023-04-12T05:59:49.516Z,29.10
2023-04-12T06:00:49.069Z,29.13
2023-04-12T06:01:49.086Z,29.12
2023-04-12T06:02:49.090Z,29.10
2023-04-12T06:03:49.165Z,29.08
2023-04-12T06:04:50.864Z,29.12
2023-04-12T06:05:49.214Z,29.15
2023-04-12T06:06:49.139Z,29.14
2023-04-12T06:07:49.579Z,29.12
2023-04-12T06:08:49.320Z,29.20
2023-04-12T06:09:49.137Z,29.15
2023-04-12T06:10:49.252Z,29.23
2023-04-12T06:11:49.259Z,29.30
2023-04-12T06:12:49.360Z,29.37
2023-04-12T06:13:49.227Z,29.36
2023-04-12T06:14:49.295Z,29.39
2023-04-12T06:15:49.429Z,29.37
2023-04-12T06:16:49.419Z,29.41
2023-04-12T06:17:49.554Z,29.52
2023-04-12T06:18:49.579Z,29.53
2023-04-12T06:19:49.606Z,29.72
2023-04-12T06:20:49.705Z,29.68
2023-04-12T06:21:49.687Z,29.62
2023-04-12T06:22:49.742Z,29.64
2023-04-12T06:23:56.534Z,29.76
2023-04-12T06:24:50.048Z,29.77
2023-04-12T06:25:49.782Z,29.74
2023-04-12T06:26:49.795Z,29.78
2023-04-12T06:27:49.862Z,29.80
2023-04-12T06:28:49.778Z,29.88
2023-04-12T06:29:50.016Z,29.88
2023-04-12T06:30:49.704Z,29.91
2023-04-12T06:31:49.826Z,30.10
2023-04-12T06:32:49.748Z,30.06
2023-04-12T06:33:49.806Z,29.81
2023-04-12T06:34:49.808Z,29.69
2023-04-12T06:35:50.553Z,29.61
2023-04-12T06:36:49.722Z,29.59
2023-04-12T06:37:49.744Z,28.84
2023-04-12T06:38:49.730Z,28.37
2023-04-12T06:39:50.060Z,28.09
2023-04-12T06:40:49.675Z,28.41
2023-04-12T06:41:49.849Z,27.57
2023-04-12T06:42:49.750Z,27.13
2023-04-12T06:43:49.644Z,27.12
2023-04-12T06:44:49.713Z,27.55
2023-04-12T06:45:49.723Z,27.70
2023-04-12T06:46:49.751Z,28.12
2023-04-12T06:47:49.653Z,28.60
2023-04-12T06:48:49.621Z,28.73
2023-04-12T06:49:49.705Z,28.97
2023-04-12T06:50:49.611Z,29.07
2023-04-12T06:51:49.605Z,29.20
2023-04-12T06:52:49.621Z,29.35
2023-04-12T06:53:49.636Z,29.44
2023-04-12T06:54:49.639Z,29.48
2023-04-12T06:55:49.567Z,29.56
2023-04-12T06:56:49.593Z,29.59
2023-04-12T06:57:49.671Z,29.65
2023-04-12T06:58:49.865Z,29.70
2023-04-12T06:59:49.563Z,29.75
2023-04-12T07:00:50.164Z,30.05
2023-04-12T07:01:49.837Z,29.90
2023-04-12T07:02:49.905Z,28.90
2023-04-12T07:03:49.978Z,28.41
2023-04-12T07:04:49.899Z,28.88
2023-04-12T07:05:49.938Z,28.20
2023-04-12T07:06:49.956Z,28.66
2023-04-12T07:07:50.039Z,28.76
2023-04-12T07:08:50.078Z,29.07
2023-04-12T07:09:50.141Z,29.43
2023-04-12T07:10:50.204Z,29.55
2023-04-12T07:11:50.253Z,29.73
2023-04-12T07:12:50.304Z,29.73
2023-04-12T07:13:50.411Z,29.84
2023-04-12T07:14:50.406Z,29.97
2023-04-12T07:15:50.494Z,30.04
2023-04-12T07:16:50.553Z,30.07
2023-04-12T07:17:50.698Z,30.09
2023-04-12T07:18:50.783Z,30.68
2023-04-12T07:19:51.064Z,30.39
2023-04-12T07:20:50.780Z,30.32
2023-04-12T07:21:50.861Z,30.42
2023-04-12T07:22:50.849Z,30.43
2023-04-12T07:23:50.882Z,30.51
2023-04-12T07:24:51.081Z,30.47
2023-04-12T07:25:50.988Z,30.60
2023-04-12T07:26:51.013Z,30.62
2023-04-12T07:27:51.957Z,30.69
2023-04-12T07:28:51.134Z,30.86
2023-04-12T07:29:51.148Z,30.88
2023-04-12T07:30:51.212Z,31.46
2023-04-12T07:31:51.284Z,29.12
2023-04-12T07:32:51.312Z,28.12
2023-04-12T07:33:51.402Z,27.38
2023-04-12T07:34:51.319Z,27.22
2023-04-12T07:35:51.371Z,27.62
2023-04-12T07:36:51.362Z,28.27
2023-04-12T07:37:51.379Z,28.62
2023-04-12T07:38:51.584Z,28.74
2023-04-12T07:39:51.550Z,28.98
2023-04-12T07:40:51.490Z,29.16
2023-04-12T07:41:51.526Z,29.39
2023-04-12T07:42:51.514Z,29.62
2023-04-12T07:43:51.550Z,29.81
2023-04-12T07:44:51.607Z,29.91
2023-04-12T07:45:51.585Z,30.05
2023-04-12T07:46:51.635Z,30.05
2023-04-12T07:47:51.677Z,30.20
2023-04-12T07:48:51.731Z,30.26
2023-04-12T07:49:51.757Z,30.28
2023-04-12T07:50:51.797Z,30.41
2023-04-12T07:51:51.868Z,30.46
2023-04-12T07:52:51.906Z,30.45
2023-04-12T07:53:51.994Z,30.75
2023-04-12T07:54:52.209Z,30.73
2023-04-12T07:55:52.327Z,30.69
2023-04-12T07:56:52.210Z,30.77
2023-04-12T07:57:52.257Z,30.80
2023-04-12T07:58:52.330Z,31.24
2023-04-12T07:59:52.351Z,31.15
2023-04-12T08:00:52.437Z,31.28
2023-04-12T08:01:52.553Z,31.16
2023-04-12T08:02:52.630Z,31.16
2023-04-12T08:03:52.659Z,31.18
2023-04-12T08:04:52.513Z,31.21
2023-04-12T08:05:52.507Z,31.23
2023-04-12T08:06:52.526Z,31.37
2023-04-12T08:07:52.720Z,31.37
2023-04-12T08:08:52.646Z,31.38
2023-04-12T08:09:52.639Z,31.44
2023-04-12T08:10:52.720Z,31.41
2023-04-12T08:11:52.764Z,31.49
2023-04-12T08:12:52.832Z,31.53
2023-04-12T08:13:52.852Z,31.60
2023-04-12T08:14:52.849Z,31.78
2023-04-12T08:15:52.877Z,31.79
2023-04-12T08:16:52.857Z,31.74
2023-04-12T08:17:52.920Z,31.86
2023-04-12T08:18:52.917Z,31.83
2023-04-12T08:19:53.118Z,32.08
2023-04-12T08:20:52.989Z,32.07
2023-04-12T08:21:53.128Z,32.14
2023-04-12T08:22:53.289Z,32.27
2023-04-12T08:23:53.453Z,32.38
2023-04-12T08:24:53.533Z,32.32
2023-04-12T08:25:54.149Z,32.43
2023-04-12T08:26:53.646Z,33.06
2023-04-12T08:27:53.647Z,32.74
2023-04-12T08:28:53.759Z,32.66
2023-04-12T08:29:53.663Z,32.56
2023-04-12T08:30:53.709Z,32.41
2023-04-12T08:31:53.726Z,32.26
2023-04-12T08:32:53.896Z,32.18
2023-04-12T08:33:53.890Z,32.09
2023-04-12T08:34:53.918Z,32.02
2023-04-12T08:35:54.209Z,31.87
2023-04-12T08:36:53.940Z,31.79
2023-04-12T08:37:54.016Z,31.73
2023-04-12T08:38:55.075Z,31.67
2023-04-12T08:39:54.080Z,31.60
2023-04-12T08:40:54.155Z,31.59
2023-04-12T08:41:54.086Z,31.53
2023-04-12T08:42:54.185Z,31.48
2023-04-12T08:43:54.165Z,31.39
2023-04-12T08:44:54.326Z,30.84
2023-04-12T08:45:54.371Z,30.99
2023-04-12T08:46:54.418Z,30.84
2023-04-12T08:47:54.447Z,30.91
2023-04-12T08:48:54.340Z,31.19
2023-04-12T08:49:54.418Z,31.42
2023-04-12T08:50:54.437Z,31.65
2023-04-12T08:51:54.630Z,31.80
2023-04-12T08:52:54.429Z,31.76
2023-04-12T08:53:54.434Z,30.87
2023-04-12T08:54:54.445Z,30.84
2023-04-12T08:55:54.501Z,30.89
2023-04-12T08:56:54.512Z,30.40
2023-04-12T08:57:54.574Z,28.89
2023-04-12T08:58:54.584Z,28.12
2023-04-12T08:59:54.622Z,28.08
2023-04-12T09:00:54.690Z,28.13
2023-04-12T09:01:54.957Z,28.49
2023-04-12T09:02:55.028Z,28.97
2023-04-12T09:03:56.694Z,29.29
2023-04-12T09:04:54.905Z,29.69
2023-04-12T09:05:54.939Z,30.07
2023-04-12T09:06:55.055Z,30.22
2023-04-12T09:07:55.063Z,30.34
2023-04-12T09:08:55.142Z,30.41
2023-04-12T09:09:55.172Z,30.48
2023-04-12T09:10:55.179Z,30.50
2023-04-12T09:11:55.278Z,30.64
2023-04-12T09:12:55.285Z,30.57
2023-04-12T09:13:55.375Z,30.50
2023-04-12T09:14:55.412Z,30.43
2023-04-12T09:15:55.534Z,30.48
2023-04-12T09:16:55.474Z,30.42
2023-04-12T09:17:55.619Z,30.37
2023-04-12T09:18:55.696Z,30.37
2023-04-12T09:19:55.549Z,30.47
2023-04-12T09:20:55.519Z,30.47
2023-04-12T09:21:55.592Z,30.40
2023-04-12T09:22:55.642Z,30.33
2023-04-12T09:23:55.882Z,30.42
2023-04-12T09:24:55.657Z,30.43
2023-04-12T09:25:55.690Z,30.41
2023-04-12T09:26:55.706Z,30.35
2023-04-12T09:27:55.757Z,30.38
2023-04-12T09:28:55.803Z,30.38
2023-04-12T09:29:55.822Z,30.41
2023-04-12T09:30:55.832Z,30.37
2023-04-12T09:31:55.993Z,30.44
2023-04-12T09:32:55.990Z,29.97
2023-04-12T09:33:56.098Z,27.88
2023-04-12T09:34:55.956Z,27.57
2023-04-12T09:35:55.989Z,27.84
2023-04-12T09:36:56.062Z,28.02
2023-04-12T09:37:55.885Z,28.33
2023-04-12T09:38:55.933Z,28.57
2023-04-12T09:39:56.053Z,28.48
2023-04-12T09:40:55.938Z,28.67
2023-04-12T09:41:55.940Z,28.67
2023-04-12T09:42:56.011Z,28.67
2023-04-12T09:43:56.336Z,28.71
2023-04-12T09:44:56.146Z,28.51
2023-04-12T09:45:56.169Z,28.67
2023-04-12T09:46:56.313Z,28.58
2023-04-12T09:47:56.386Z,28.51
2023-04-12T09:48:56.584Z,28.57
2023-04-12T09:49:56.375Z,28.30
2023-04-12T09:50:56.431Z,28.40
2023-04-12T09:51:58.901Z,28.23
2023-04-12T09:52:56.469Z,28.14
2023-04-12T09:53:56.579Z,28.15
2023-04-12T09:54:56.458Z,28.16
2023-04-12T09:55:56.509Z,28.21
2023-04-12T09:56:56.446Z,28.37
2023-04-12T09:57:56.491Z,28.41
2023-04-12T09:58:56.596Z,28.52
2023-04-12T09:59:56.411Z,28.79
2023-04-12T10:00:56.435Z,28.70
2023-04-12T10:01:56.486Z,28.77
2023-04-12T10:02:56.915Z,28.92
2023-04-12T10:03:56.856Z,28.74
2023-04-12T10:04:56.645Z,28.76
2023-04-12T10:05:56.463Z,28.70
2023-04-12T10:06:56.367Z,28.49
2023-04-12T10:07:56.378Z,28.56
2023-04-12T10:08:56.540Z,28.40
2023-04-12T10:09:56.412Z,28.26
2023-04-12T10:10:56.395Z,28.26
2023-04-12T10:11:56.345Z,28.62
2023-04-12T10:12:56.357Z,28.28
2023-04-12T10:13:56.695Z,28.56
2023-04-12T10:14:56.366Z,28.56
2023-04-12T10:15:56.392Z,28.34
2023-04-12T10:16:56.434Z,28.63
2023-04-12T10:17:56.305Z,28.52
2023-04-12T10:18:56.514Z,28.45
2023-04-12T10:19:56.269Z,28.65
2023-04-12T10:20:56.308Z,28.79
2023-04-12T10:21:56.299Z,28.71
2023-04-12T10:22:56.285Z,28.79
2023-04-12T10:23:56.329Z,28.81
2023-04-12T10:24:56.286Z,28.89
2023-04-12T10:25:56.282Z,28.87
2023-04-12T10:26:56.297Z,28.91
2023-04-12T10:27:56.369Z,28.95
2023-04-12T10:28:58.933Z,28.88
2023-04-12T10:29:56.371Z,28.55
2023-04-12T10:30:56.369Z,28.78
2023-04-12T10:31:56.445Z,28.68
2023-04-12T10:32:56.420Z,28.01
2023-04-12T10:33:56.426Z,26.74
2023-04-12T10:34:56.452Z,26.52
2023-04-12T10:35:56.531Z,27.28
2023-04-12T10:36:56.382Z,27.58
2023-04-12T10:37:56.368Z,27.75
2023-04-12T10:38:56.505Z,28.02
2023-04-12T10:39:56.330Z,28.09
2023-04-12T10:40:56.299Z,28.49
2023-04-12T10:41:56.276Z,28.52
2023-04-12T10:42:56.301Z,28.54
2023-04-12T10:43:56.344Z,28.52
2023-04-12T10:44:57.493Z,28.57
2023-04-12T10:45:56.274Z,28.62
2023-04-12T10:46:56.303Z,28.67
2023-04-12T10:47:56.294Z,28.68
2023-04-12T10:48:56.427Z,28.64
2023-04-12T10:49:56.264Z,28.69
2023-04-12T10:50:56.234Z,28.65
2023-04-12T10:51:56.307Z,28.74
2023-04-12T10:52:56.204Z,28.71
2023-04-12T10:53:56.297Z,28.77
2023-04-12T10:54:56.256Z,28.69
2023-04-12T10:55:56.211Z,28.82
2023-04-12T10:56:56.355Z,28.89
2023-04-12T10:57:56.720Z,28.88
2023-04-12T10:58:56.297Z,28.74
2023-04-12T10:59:57.299Z,28.87
2023-04-12T11:00:56.221Z,28.96
2023-04-12T11:01:56.322Z,28.97
2023-04-12T11:02:56.388Z,28.80
2023-04-12T11:03:56.368Z,28.90
2023-04-12T11:04:56.307Z,28.63
2023-04-12T11:05:56.100Z,28.35
2023-04-12T11:06:58.538Z,28.24
2023-04-12T11:07:56.156Z,28.44
2023-04-12T11:08:56.591Z,28.47
2023-04-12T11:09:56.244Z,28.38
2023-04-12T11:10:56.162Z,28.47
2023-04-12T11:11:56.125Z,28.40
2023-04-12T11:12:56.109Z,28.43
2023-04-12T11:13:56.145Z,28.46
2023-04-12T11:14:56.156Z,28.37
2023-04-12T11:15:56.027Z,28.15
2023-04-12T11:16:56.108Z,28.25
2023-04-12T11:17:56.250Z,28.22
2023-04-12T11:18:56.286Z,28.32
2023-04-12T11:19:56.117Z,28.25
2023-04-12T11:20:56.018Z,28.30
2023-04-12T11:21:56.054Z,28.44
2023-04-12T11:22:56.070Z,28.43
2023-04-12T11:23:55.999Z,28.45
2023-04-12T11:24:56.074Z,28.25
2023-04-12T11:25:56.340Z,28.33
2023-04-12T11:26:56.037Z,28.30
2023-04-12T11:27:56.006Z,28.32
2023-04-12T11:28:56.232Z,28.28
2023-04-12T11:29:55.944Z,28.22
2023-04-12T11:30:56.015Z,28.21
2023-04-12T11:31:56.069Z,28.21
2023-04-12T11:32:55.996Z,28.25
2023-04-12T11:33:55.960Z,28.22
2023-04-12T11:34:55.945Z,28.20
2023-04-12T11:35:55.955Z,28.14
2023-04-12T11:36:55.953Z,28.20
2023-04-12T11:37:55.966Z,28.13
2023-04-12T11:38:56.264Z,28.13
2023-04-12T11:39:55.894Z,28.13
2023-04-12T11:40:55.928Z,28.08
2023-04-12T11:41:55.907Z,28.06
2023-04-12T11:42:55.902Z,28.08
2023-04-12T11:43:55.954Z,28.06
2023-04-12T11:44:59.782Z,28.04
2023-04-12T11:45:56.939Z,28.09
2023-04-12T11:46:55.925Z,27.99
2023-04-12T11:47:56.008Z,28.07
2023-04-12T11:48:55.982Z,27.91
2023-04-12T11:49:55.823Z,27.87
2023-04-12T11:51:07.634Z,27.93
2023-04-12T11:51:56.881Z,27.90
2023-04-12T11:52:55.886Z,27.81
2023-04-12T11:53:56.075Z,27.93
2023-04-12T11:54:55.819Z,27.87
2023-04-12T11:55:55.862Z,27.80
2023-04-12T11:56:55.834Z,27.89
2023-04-12T11:57:55.822Z,27.92
2023-04-12T11:58:56.219Z,27.91
2023-04-12T11:59:55.818Z,27.80
2023-04-12T12:00:55.809Z,27.75
2023-04-12T12:01:55.839Z,27.88
2023-04-12T12:03:06.838Z,27.80
2023-04-12T12:03:57.061Z,27.77
2023-04-12T12:04:56.173Z,27.83
2023-04-12T12:05:55.825Z,27.82
2023-04-12T12:06:55.975Z,27.75
2023-04-12T12:07:55.785Z,27.77
2023-04-12T12:08:55.792Z,27.76
2023-04-12T12:09:56.695Z,27.73
2023-04-12T12:11:06.358Z,27.73
2023-04-12T12:11:56.760Z,27.66
2023-04-12T12:12:55.682Z,27.65
2023-04-12T12:13:55.760Z,27.70
2023-04-12T12:14:55.728Z,27.71
2023-04-12T12:15:55.661Z,27.65
2023-04-12T12:16:55.731Z,27.65
2023-04-12T12:17:55.756Z,27.64
2023-04-12T12:18:55.740Z,27.64
2023-04-12T12:19:55.741Z,27.62
2023-04-12T12:20:55.710Z,27.61
2023-04-12T12:21:55.661Z,27.58
2023-04-12T12:22:55.661Z,27.58
2023-04-12T12:23:56.106Z,27.59
2023-04-12T12:24:55.759Z,27.55
2023-04-12T12:26:56.811Z,27.51
2023-04-12T12:27:07.547Z,27.55
2023-04-12T12:27:56.727Z,27.54
2023-04-12T12:28:55.831Z,27.54
2023-04-12T12:29:55.842Z,27.54
2023-04-12T12:30:55.940Z,27.53
2023-04-12T12:31:55.913Z,27.55
2023-04-12T12:32:55.803Z,27.54
2023-04-12T12:33:55.780Z,27.55
2023-04-12T12:34:55.889Z,27.53
2023-04-12T12:35:55.945Z,27.51
2023-04-12T12:36:56.016Z,27.49
2023-04-12T12:37:56.005Z,27.54
2023-04-12T12:38:56.372Z,27.51
2023-04-12T12:39:56.205Z,27.53
2023-04-12T12:40:56.199Z,27.54
2023-04-12T12:41:56.202Z,27.52
2023-04-12T12:42:56.336Z,27.51
2023-04-12T12:43:56.480Z,27.57
2023-04-12T12:44:56.332Z,27.53
2023-04-12T12:45:56.359Z,27.55
2023-04-12T12:47:03.388Z,27.51
2023-04-12T12:47:57.688Z,27.49
2023-04-12T12:48:56.453Z,27.51
2023-04-12T12:49:56.540Z,27.52
2023-04-12T12:50:57.172Z,27.54
2023-04-12T12:51:56.419Z,27.51
2023-04-12T12:52:56.494Z,27.53